Time;durP1;ratioP1;P1;durP2;ratioP2;P2;SDS_P1;SDS_P2;PMS_P1;PMS_P2;Temp;Humidity;BMP_temperature;BMP_pressure;BME280_temperature;BME280_humidity;BME280_pressure;Samples;Min_cycle;Max_cycle;Signal;HPM_P1;HPM_P2
2021/11/15 00:01:41;;;;;;;;;;;;;;;3.42;87.49;100178.53;4960722;28;20021;-86
2021/11/15 00:04:06;;;;;;;;;;;;;;;3.36;87.48;100184.66;4963615;28;19926;-87
2021/11/15 00:06:32;;;;;;;;;;;;;;;3.30;87.12;100182.09;4962886;28;19926;-87
2021/11/15 00:08:57;;;;;;;;;;;;;;;3.28;87.62;100189.09;4964605;28;19918;-87
2021/11/15 00:11:22;;;;;;;;;;;;;;;3.31;88.34;100180.38;4964392;28;20289;-87
2021/11/15 00:13:48;;;;;;;;;;;;;;;3.23;88.47;100180.41;4963313;28;19958;-86
2021/11/15 03:25:05;;;;;;;;;;;;;;;6.90;100.00;100175.31;5469392;23;19931;-87
2021/11/15 03:27:34;;;;;;;;;;;;;;;6.91;100.00;100174.44;4953120;29;19923;-87
2021/11/15 03:30:00;;;;;;;;;;;;;;;6.98;100.00;100175.16;4953765;28;19922;-86
2021/11/15 03:32:25;;;;;;;;;;;;;;;6.96;100.00;100185.72;4953941;28;19922;-86
2021/11/15 03:34:51;;;;;;;;;;;;;;;6.97;100.00;100179.53;4952510;28;19918;-86
2021/11/15 03:37:16;;;;;;;;;;;;;;;7.04;100.00;100183.78;4953663;28;19922;-86
2021/11/15 03:39:41;;;;;;;;;;;;;;;7.02;100.00;100180.31;4952335;29;19961;-87
2021/11/15 03:42:06;;;;;;;;;;;;;;;7.02;100.00;100184.72;4952419;28;20270;-86
2021/11/15 03:44:32;;;;;;;;;;;;;;;7.09;100.00;100176.63;4956303;28;19965;-86
2021/11/15 03:46:57;;;;;;;;;;;;;;;7.08;100.00;100177.56;4957731;28;19965;-87
2021/11/15 03:49:22;;;;;;;;;;;;;;;7.09;100.00;100179.28;4957664;28;20293;-86
2021/11/15 03:51:48;;;;;;;;;;;;;;;7.03;100.00;100179.41;4957506;28;20297;-86
2021/11/15 03:54:13;;;;;;;;;;;;;;;5.50;100.00;100175.25;4956303;28;19918;-86
2021/11/15 03:56:38;;;;;;;;;;;;;;;4.40;100.00;100181.97;4957462;28;20373;-86
2021/11/15 03:59:06;;;;;;;;;;;;;;;3.92;100.00;100184.22;4957423;28;19918;-86
2021/11/15 04:01:33;;;;;;;;;;;;;;;3.75;100.00;100182.63;4957392;28;20005;-86
2021/11/15 04:04:00;;;;;;;;;;;;;;;3.51;100.00;100186.31;4956103;29;19929;-86
2021/11/15 04:06:28;;;;;;;;;;;;;;;3.37;100.00;100189.03;4957302;28;19970;-86
2021/11/15 04:08:59;;;;;;;;;;;;;;;3.34;100.00;100181.19;4954839;29;19923;-86
2021/11/15 04:11:26;;;;;;;;;;;;;;;3.27;100.00;100182.09;4957226;28;19929;-86
2021/11/15 04:13:53;;;;;;;;;;;;;;;3.03;100.00;100189.25;4955932;28;20290;-86
2021/11/15 04:16:19;;;;;;;;;;;;;;;3.04;100.00;100179.66;4956461;29;20369;-86
2021/11/15 04:18:49;;;;;;;;;;;;;;;2.89;100.00;100185.84;4957265;28;19919;-86
2021/11/15 04:21:17;;;;;;;;;;;;;;;2.78;100.00;100179.78;4957025;28;19922;-85
2021/11/15 04:23:42;;;;;;;;;;;;;;;2.62;99.33;100192.94;4956244;28;19929;-86
2021/11/15 04:26:07;;;;;;;;;;;;;;;2.55;98.84;100183.34;4955682;29;19923;-86
2021/11/15 04:28:33;;;;;;;;;;;;;;;2.41;98.08;100191.28;4956890;28;19923;-86
2021/11/15 04:30:58;;;;;;;;;;;;;;;2.41;98.23;100182.53;4956988;28;19981;-86
2021/11/15 04:33:24;;;;;;;;;;;;;;;2.32;97.79;100184.31;4956603;28;20019;-86
2021/11/15 04:35:50;;;;;;;;;;;;;;;2.38;97.56;100174.69;4956756;28;20029;-86
2021/11/15 08:58:38;;;;;;;;;;;;;;;4.70;86.06;100224.50;5480408;23;19934;-85
2021/11/15 09:01:04;;;;;;;;;;;;;;;4.71;86.25;100227.13;4956111;28;19926;-85
2021/11/15 09:03:29;;;;;;;;;;;;;;;4.75;86.00;100222.69;4956794;28;19918;-84
2021/11/15 09:05:55;;;;;;;;;;;;;;;4.69;85.68;100223.66;4956598;29;19938;-84
2021/11/15 09:08:21;;;;;;;;;;;;;;;4.74;85.75;100223.59;4956427;28;19922;-85
2021/11/15 09:10:46;;;;;;;;;;;;;;;4.75;85.80;100220.06;4955962;29;19925;-85
2021/11/15 09:13:12;;;;;;;;;;;;;;;4.77;85.74;100220.06;4955056;29;19919;-85
2021/11/15 09:15:38;;;;;;;;;;;;;;;4.77;85.59;100220.94;4955538;28;20317;-84
2021/11/15 09:18:03;;;;;;;;;;;;;;;4.80;85.67;100217.38;4956174;29;19927;-84
2021/11/15 09:20:29;;;;;;;;;;;;;;;4.84;85.54;100217.34;4955918;28;19940;-84
2021/11/15 09:22:54;;;;;;;;;;;;;;;4.84;85.93;100214.72;4938232;29;19922;-85
2021/11/15 09:25:19;;;;;;;;;;;;;;;4.88;85.75;100221.69;4955547;28;19918;-84
2021/11/15 09:27:44;;;;;;;;;;;;;;;4.90;85.89;100217.25;4954522;29;19922;-84
2021/11/15 09:30:11;;;;;;;;;;;;;;;4.93;85.83;100215.47;4939432;29;19922;-84
2021/11/15 09:32:36;;;;;;;;;;;;;;;4.93;85.76;100216.38;4937785;29;20009;-85
2021/11/15 09:35:02;;;;;;;;;;;;;;;4.96;85.73;100215.44;4955601;28;19997;-84
2021/11/15 09:37:28;;;;;;;;;;;;;;;4.94;85.86;100215.47;4955754;28;19922;-84
2021/11/15 09:39:55;;;;;;;;;;;;;;;4.98;85.75;100219.78;4955093;29;19926;-84
2021/11/15 09:42:21;;;;;;;;;;;;;;;5.02;86.09;100220.63;4953141;29;20338;-84
2021/11/15 09:44:46;;;;;;;;;;;;;;;5.05;86.19;100221.44;4955478;29;19923;-85
2021/11/15 09:47:11;;;;;;;;;;;;;;;5.06;85.93;100222.31;4955079;28;19925;-84
2021/11/15 09:49:37;;;;;;;;;;;;;;;5.06;85.94;100217.94;4955523;29;20436;-85
2021/11/15 09:52:02;;;;;;;;;;;;;;;5.09;86.28;100222.28;4955573;28;19929;-85
2021/11/15 09:54:28;;;;;;;;;;;;;;;5.11;86.10;100217.88;4955395;29;19922;-84
2021/11/15 09:56:54;;;;;;;;;;;;;;;5.14;86.07;100225.72;4954630;28;19926;-85
2021/11/15 09:59:20;;;;;;;;;;;;;;;5.14;86.33;100219.56;4933644;29;19923;-85
2021/11/15 10:01:48;;;;;;;;;;;;;;;5.17;86.41;100225.66;4936103;29;20374;-85
2021/11/15 10:04:16;;;;;;;;;;;;;;;5.16;86.44;100228.31;4934413;29;19923;-85
2021/11/15 10:06:41;;;;;;;;;;;;;;;5.21;86.71;100224.72;4934171;29;19930;-85
2021/11/15 10:09:07;;;;;;;;;;;;;;;5.24;86.69;100221.19;4935820;29;19927;-85
2021/11/15 10:11:44;;;;;;;;;;;;;;;5.23;86.87;100217.72;4935749;29;20378;-85
2021/11/15 10:14:09;;;;;;;;;;;;;;;5.22;86.80;100218.59;4934601;29;19925;-85
2021/11/15 10:16:35;;;;;;;;;;;;;;;5.30;86.97;100225.47;4935804;29;19923;-85
2021/11/15 10:19:02;;;;;;;;;;;;;;;5.30;86.93;100213.22;4936300;29;20014;-85
2021/11/15 10:21:28;;;;;;;;;;;;;;;5.28;86.91;100218.50;4935523;29;19923;-85
2021/11/15 10:23:58;;;;;;;;;;;;;;;5.31;87.12;100216.72;4932915;29;20421;-85
2021/11/15 10:26:30;;;;;;;;;;;;;;;5.33;87.14;100220.19;4934769;29;19929;-85
2021/11/15 10:29:26;;;;;;;;;;;;;;;5.34;87.26;100212.28;4933684;29;20014;-85
2021/11/15 10:32:01;;;;;;;;;;;;;;;5.38;87.20;100213.13;4926137;28;19923;-85
2021/11/15 10:34:34;;;;;;;;;;;;;;;5.40;87.61;100214.81;4935016;29;19922;-85
2021/11/15 10:37:02;;;;;;;;;;;;;;;5.42;87.63;100222.69;4935151;29;19922;-85
2021/11/15 10:39:29;;;;;;;;;;;;;;;5.41;87.67;100218.34;4934675;29;21587;-85
2021/11/15 10:42:03;;;;;;;;;;;;;;;5.41;87.64;100213.09;4935440;29;20044;-85
2021/11/15 10:44:30;;;;;;;;;;;;;;;5.48;87.71;100217.34;4933029;29;19923;-85
2021/11/15 10:46:55;;;;;;;;;;;;;;;5.48;87.89;100214.72;4934129;29;19929;-85
2021/11/15 10:49:22;;;;;;;;;;;;;;;5.51;87.93;100217.28;4935408;29;20009;-84
2021/11/15 10:51:49;;;;;;;;;;;;;;;5.48;87.72;100217.34;4935126;29;19929;-85
2021/11/15 10:54:28;;;;;;;;;;;;;;;5.50;87.86;100212.06;4934508;29;20009;-84
2021/11/15 10:56:55;;;;;;;;;;;;;;;5.51;88.06;100209.41;4933670;29;19927;-85
2021/11/15 10:59:21;;;;;;;;;;;;;;;5.54;88.18;100209.38;4942726;28;20294;-85
2021/11/15 11:01:47;;;;;;;;;;;;;;;5.56;88.24;100202.31;4952305;28;20400;-84
2021/11/15 11:04:16;;;;;;;;;;;;;;;5.59;88.23;100201.41;4936556;29;19923;-85
2021/11/15 11:06:53;;;;;;;;;;;;;;;5.60;88.47;100196.13;4952770;28;20386;-84
2021/11/15 11:09:35;;;;;;;;;;;;;;;5.60;88.51;100184.72;4953923;28;19927;-85
2021/11/15 11:12:09;;;;;;;;;;;;;;;5.63;88.71;100182.94;4952460;29;19926;-84
2021/11/15 11:14:34;;;;;;;;;;;;;;;5.64;88.77;100176.75;4934399;29;19933;-84
2021/11/15 11:17:02;;;;;;;;;;;;;;;5.64;88.55;100179.38;4952925;28;19922;-84
2021/11/15 11:27:26;;;;;;;;;;;;;;;5.74;88.87;100168.72;4901959;29;20009;-84
2021/11/15 11:29:52;;;;;;;;;;;;;;;5.78;88.68;100181.81;4942154;29;19927;-84
2021/11/15 11:32:20;;;;;;;;;;;;;;;5.77;88.92;100173.94;4936730;29;19926;-85
2021/11/15 11:34:47;;;;;;;;;;;;;;;5.80;88.94;100180.00;4952533;28;20029;-84
2021/11/15 11:37:14;;;;;;;;;;;;;;;5.85;88.97;100186.97;4953604;28;19923;-85
2021/11/15 11:39:41;;;;;;;;;;;;;;;5.86;89.09;100189.56;4952547;29;20028;-84
2021/11/15 11:42:07;;;;;;;;;;;;;;;5.85;89.00;100185.19;4951744;28;20450;-84
2021/11/15 11:44:33;;;;;;;;;;;;;;;5.88;89.17;100185.13;4952588;28;19938;-85
2021/11/15 11:47:03;;;;;;;;;;;;;;;5.89;89.33;100189.50;4952874;29;19926;-84
2021/11/15 11:49:29;;;;;;;;;;;;;;;5.92;89.39;100175.41;4936336;29;19918;-85
2021/11/15 11:51:57;;;;;;;;;;;;;;;5.93;89.42;100185.91;4952497;28;19926;-84
2021/11/15 11:54:27;;;;;;;;;;;;;;;5.92;89.46;100172.78;4951846;28;19926;-84
2021/11/15 11:56:57;;;;;;;;;;;;;;;5.94;89.40;100173.66;4952558;29;19927;-84
2021/11/15 11:59:25;;;;;;;;;;;;;;;5.98;89.41;100162.19;4951500;28;20399;-84
2021/11/15 12:01:58;;;;;;;;;;;;;;;5.99;89.44;100164.81;4936182;29;20289;-84
2021/11/15 12:04:25;;;;;;;;;;;;;;;5.98;89.59;100160.47;4950264;28;19956;-84
2021/11/15 12:06:51;;;;;;;;;;;;;;;6.00;89.76;100158.66;4957345;28;19923;-84
2021/11/15 12:09:22;;;;;;;;;;;;;;;6.04;89.74;100169.97;4956234;29;19929;-84
2021/11/15 12:11:59;;;;;;;;;;;;;;;6.04;89.84;100171.75;4939463;29;19930;-84
2021/11/15 12:14:35;;;;;;;;;;;;;;;6.07;89.78;100158.56;4955273;29;19934;-84
2021/11/15 12:17:14;;;;;;;;;;;;;;;6.05;89.76;100160.31;4956956;29;19977;-84
2021/11/15 12:19:53;;;;;;;;;;;;;;;6.08;89.61;100155.88;4956110;29;19927;-84
2021/11/15 12:22:20;;;;;;;;;;;;;;;6.12;89.85;100161.94;4956739;29;20290;-84
2021/11/15 12:25:04;;;;;;;;;;;;;;;6.11;89.80;100154.94;4955830;29;19970;-84
2021/11/15 12:27:42;;;;;;;;;;;;;;;6.12;89.95;100154.06;4955116;28;19970;-84
2021/11/15 12:30:13;;;;;;;;;;;;;;;6.16;89.83;100151.34;4956074;28;19923;-84
2021/11/15 12:32:38;;;;;;;;;;;;;;;6.17;89.85;100161.00;4939539;29;19930;-84
2021/11/15 12:35:04;;;;;;;;;;;;;;;6.21;89.88;100147.75;4955909;28;19922;-84
2021/11/15 12:37:32;;;;;;;;;;;;;;;6.18;89.84;100151.31;4956343;28;19923;-84
2021/11/15 12:39:57;;;;;;;;;;;;;;;6.20;89.89;100157.41;4954811;28;20070;-84
2021/11/15 12:42:29;;;;;;;;;;;;;;;6.22;89.85;100155.59;4955222;29;20604;-84
2021/11/15 12:45:24;;;;;;;;;;;;;;;6.26;89.95;100151.19;4954253;28;20058;-84
2021/11/15 12:47:50;;;;;;;;;;;;;;;6.25;90.15;100160.81;4954178;28;19969;-84
2021/11/15 12:50:17;;;;;;;;;;;;;;;6.28;90.33;100160.75;4939438;29;19974;-84
2021/11/15 12:52:50;;;;;;;;;;;;;;;6.34;90.38;100152.75;4954944;28;19914;-84
2021/11/15 12:55:16;;;;;;;;;;;;;;;6.42;90.69;100154.38;4954824;29;19930;-83
2021/11/15 12:57:46;;;;;;;;;;;;;;;6.48;90.81;100146.34;4955224;29;19930;-84
2021/11/15 13:00:16;;;;;;;;;;;;;;;6.51;91.17;100143.63;4955669;28;20382;-84
2021/11/15 13:02:45;;;;;;;;;;;;;;;6.53;91.45;100147.13;4955327;28;19923;-84
2021/11/15 13:05:11;;;;;;;;;;;;;;;6.54;91.89;100147.09;4955787;28;19973;-84
2021/11/15 13:07:36;;;;;;;;;;;;;;;6.56;91.85;100139.16;4938049;29;19969;-84
2021/11/15 13:10:02;;;;;;;;;;;;;;;6.53;91.66;100132.19;4938917;29;19922;-84
2021/11/15 13:12:33;;;;;;;;;;;;;;;6.52;91.74;100122.53;4937146;29;19923;-84
2021/11/15 13:14:59;;;;;;;;;;;;;;;6.44;90.70;100129.75;4937615;28;20169;-84
2021/11/15 13:17:26;;;;;;;;;;;;;;;6.35;90.34;100136.06;4955645;29;19926;-84
2021/11/15 13:19:52;;;;;;;;;;;;;;;6.16;88.88;100132.06;4955266;28;19923;-84
2021/11/15 13:22:19;;;;;;;;;;;;;;;5.96;87.83;100128.03;4938562;29;19923;-84
2021/11/15 13:24:45;;;;;;;;;;;;;;;5.77;87.60;100126.59;4938696;29;20388;-86
2021/11/15 13:27:12;;;;;;;;;;;;;;;5.63;88.85;100126.84;4938036;29;19918;-84
2021/11/15 13:29:38;;;;;;;;;;;;;;;5.74;90.75;100132.78;4952256;29;19977;-84
2021/11/15 13:32:04;;;;;;;;;;;;;;;5.71;93.25;100124.06;4938447;29;19927;-84
2021/11/15 13:34:29;;;;;;;;;;;;;;;5.75;97.58;100125.78;4955944;29;19929;-84
2021/11/15 13:36:54;;;;;;;;;;;;;;;5.92;100.00;100125.44;4938512;29;19962;-84
2021/11/15 13:39:21;;;;;;;;;;;;;;;6.13;100.00;100118.97;4955703;28;19929;-84
2021/11/15 13:41:46;;;;;;;;;;;;;;;6.29;100.00;100119.53;4955525;28;19918;-84
2021/11/15 13:44:13;;;;;;;;;;;;;;;6.40;100.00;100106.13;4937115;29;19925;-85
2021/11/15 13:46:38;;;;;;;;;;;;;;;6.49;100.00;100105.94;4954325;28;20378;-84
2021/11/15 13:49:08;;;;;;;;;;;;;;;6.56;100.00;100107.56;4955456;29;19969;-84
2021/11/15 13:51:33;;;;;;;;;;;;;;;6.64;100.00;100104.78;4954106;29;19989;-84
2021/11/15 13:53:59;;;;;;;;;;;;;;;6.68;100.00;100106.44;4953357;29;19919;-85
2021/11/15 13:56:24;;;;;;;;;;;;;;;6.70;100.00;100100.25;4955081;29;19919;-84
2021/11/15 13:58:49;;;;;;;;;;;;;;;6.76;100.00;100103.63;4953987;28;19923;-85
2021/11/15 14:01:14;;;;;;;;;;;;;;;6.78;100.00;100112.34;4954754;29;19927;-84
2021/11/15 14:03:40;;;;;;;;;;;;;;;6.82;100.00;100111.41;4953941;29;19918;-84
2021/11/15 14:06:06;;;;;;;;;;;;;;;6.85;100.00;100106.94;4955090;28;20456;-84
2021/11/15 14:08:32;;;;;;;;;;;;;;;6.88;100.00;100112.13;4956118;28;19993;-85
2021/11/15 14:11:02;;;;;;;;;;;;;;;6.90;100.00;100109.47;4955004;28;19914;-84
2021/11/15 14:13:28;;;;;;;;;;;;;;;6.94;100.00;100112.88;4954464;28;19965;-84
2021/11/15 14:15:53;;;;;;;;;;;;;;;6.97;100.00;100102.28;4937467;29;19984;-84
2021/11/15 14:18:18;;;;;;;;;;;;;;;7.02;100.00;100110.94;4954616;28;20670;-84
2021/11/15 14:20:44;;;;;;;;;;;;;;;7.07;100.00;100103.81;4937825;29;19926;-84
2021/11/15 14:23:09;;;;;;;;;;;;;;;7.07;100.00;100106.44;4954624;29;19922;-84
2021/11/15 14:25:34;;;;;;;;;;;;;;;7.06;100.00;100109.97;4937595;29;19973;-84
2021/11/15 14:28:00;;;;;;;;;;;;;;;5.59;100.00;100118.13;4952621;28;19982;-84
2021/11/15 14:30:25;;;;;;;;;;;;;;;4.51;100.00;100113.63;4937435;29;19965;-84
2021/11/15 14:32:50;;;;;;;;;;;;;;;4.02;100.00;100111.59;4954760;28;19918;-84
2021/11/15 14:35:16;;;;;;;;;;;;;;;3.77;98.35;100114.47;4954642;28;20004;-84
2021/11/15 14:37:41;;;;;;;;;;;;;;;3.45;96.84;100116.50;4937459;29;19926;-84
2021/11/15 14:40:07;;;;;;;;;;;;;;;3.37;95.40;100120.94;4954505;28;19919;-84
2021/11/15 14:42:32;;;;;;;;;;;;;;;3.31;94.42;100125.34;4952927;28;19918;-84
2021/11/15 14:44:58;;;;;;;;;;;;;;;3.16;93.13;100129.81;4954261;28;19972;-84
2021/11/15 14:47:24;;;;;;;;;;;;;;;2.99;91.49;100131.69;4954503;29;20292;-84
2021/11/15 14:49:50;;;;;;;;;;;;;;;2.86;90.21;100133.50;4954383;29;19915;-84
2021/11/15 14:52:16;;;;;;;;;;;;;;;2.66;89.82;100126.63;4953209;29;19927;-83
2021/11/15 14:54:41;;;;;;;;;;;;;;;2.67;89.35;100128.38;4953718;28;19918;-84
2021/11/15 14:57:07;;;;;;;;;;;;;;;2.53;88.57;100122.34;4953978;28;19919;-84
2021/11/15 14:59:32;;;;;;;;;;;;;;;2.50;88.36;100131.06;4952888;29;20390;-84
2021/11/15 15:02:00;;;;;;;;;;;;;;;2.40;88.42;100128.50;4954301;28;19973;-84
2021/11/15 15:04:26;;;;;;;;;;;;;;;2.19;87.61;100130.31;4953587;28;19926;-84
2021/11/15 15:06:52;;;;;;;;;;;;;;;2.18;88.42;100126.81;4953941;28;19923;-84
2021/11/15 15:09:18;;;;;;;;;;;;;;;1.97;87.26;100122.53;4953532;28;19926;-84
2021/11/15 15:11:44;;;;;;;;;;;;;;;1.99;87.22;100131.25;4936896;29;19985;-84
2021/11/15 15:14:12;;;;;;;;;;;;;;;1.92;87.13;100126.91;4935755;29;20374;-84
2021/11/15 15:16:38;;;;;;;;;;;;;;;1.86;86.67;100139.13;4953030;28;19926;-84
2021/11/15 15:19:09;;;;;;;;;;;;;;;1.72;86.33;100131.28;4936622;29;20282;-84
2021/11/15 15:21:35;;;;;;;;;;;;;;;1.50;85.53;100133.03;4935884;29;19926;-84
2021/11/15 15:24:02;;;;;;;;;;;;;;;1.52;85.60;100145.22;4953831;29;19922;-84
2021/11/15 15:26:27;;;;;;;;;;;;;;;1.42;85.77;100140.88;4953351;29;20365;-84
2021/11/15 15:28:52;;;;;;;;;;;;;;;1.33;85.29;100141.75;4952797;29;19965;-84
2021/11/15 15:31:18;;;;;;;;;;;;;;;1.29;85.09;100142.59;4953933;28;20493;-84
2021/11/15 15:33:44;;;;;;;;;;;;;;;1.56;87.44;100151.31;4953429;28;20368;-84
2021/11/15 15:36:09;;;;;;;;;;;;;;;1.85;89.38;100146.09;4935200;29;20374;-84
2021/11/15 15:38:35;;;;;;;;;;;;;;;2.08;91.35;100147.78;4955423;28;19926;-84
2021/11/15 15:41:01;;;;;;;;;;;;;;;2.39;94.45;100148.53;4959365;28;19923;-84
2021/11/15 15:43:26;;;;;;;;;;;;;;;2.51;95.75;100142.41;4959120;28;20358;-84
2021/11/15 15:45:52;;;;;;;;;;;;;;;2.68;97.52;100145.81;4960195;29;19925;-84
2021/11/15 15:48:20;;;;;;;;;;;;;;;2.72;98.62;100147.53;4958495;29;19919;-85
2021/11/15 15:50:51;;;;;;;;;;;;;;;2.68;98.93;100153.66;4942114;29;19922;-84
2021/11/15 15:53:19;;;;;;;;;;;;;;;2.81;99.51;100161.44;4959591;28;20267;-84
2021/11/15 15:55:44;;;;;;;;;;;;;;;2.95;99.99;100170.09;4960058;28;19929;-84
2021/11/15 15:58:10;;;;;;;;;;;;;;;2.99;100.00;100165.72;4958920;28;19927;-84
2021/11/15 16:00:36;;;;;;;;;;;;;;;2.96;100.00;100173.59;4959073;28;20001;-84
2021/11/15 16:03:01;;;;;;;;;;;;;;;3.00;100.00;100162.19;4959866;28;19926;-84
2021/11/15 16:05:36;;;;;;;;;;;;;;;2.92;100.00;100164.91;4959770;28;19965;-84
2021/11/15 16:10:34;;;;;;;;;;;;;;;2.98;100.00;100163.97;4959877;28;19925;-84
2021/11/15 16:16:51;;;;;;;;;;;;;;;2.87;100.00;100174.50;4854251;29;19964;-85
2021/11/15 16:18:46;;;;;;;;;;;;;;;2.91;100.00;100166.63;4944391;28;19929;-84
2021/11/15 16:21:11;;;;;;;;;;;;;;;3.07;100.00;100170.03;4942302;29;19926;-84
2021/11/15 16:23:36;;;;;;;;;;;;;;;3.02;100.00;100166.56;4941939;28;20365;-84
2021/11/15 16:26:02;;;;;;;;;;;;;;;3.06;100.00;100173.53;4941991;29;19930;-84
2021/11/15 16:28:27;;;;;;;;;;;;;;;3.07;100.00;100172.63;4956666;28;19923;-85
2021/11/15 16:30:52;;;;;;;;;;;;;;;3.07;100.00;100164.78;4958178;28;19930;-85
2021/11/15 16:33:18;;;;;;;;;;;;;;;3.00;100.00;100168.34;4959094;28;20360;-84
2021/11/15 16:35:44;;;;;;;;;;;;;;;3.00;99.81;100168.34;4958712;28;19926;-85
2021/11/15 16:38:10;;;;;;;;;;;;;;;2.98;99.19;100175.31;4959004;28;20040;-84
2021/11/15 16:40:36;;;;;;;;;;;;;;;2.97;98.75;100176.19;4959239;28;19929;-85
2021/11/15 16:43:02;;;;;;;;;;;;;;;3.02;98.48;100171.81;4957669;28;19922;-84
2021/11/15 16:45:28;;;;;;;;;;;;;;;3.05;97.74;100177.03;4959314;28;19922;-85
2021/11/15 16:47:55;;;;;;;;;;;;;;;3.10;97.35;100179.63;4958738;28;19930;-84
2021/11/15 16:50:20;;;;;;;;;;;;;;;3.16;96.94;100174.34;4956596;28;19922;-84
2021/11/15 16:52:46;;;;;;;;;;;;;;;3.18;95.86;100176.97;4955992;29;19923;-84
2021/11/15 16:55:14;;;;;;;;;;;;;;;3.24;94.97;100174.31;4955999;28;20012;-84
2021/11/15 16:57:39;;;;;;;;;;;;;;;3.22;93.86;100182.16;4936619;29;20053;-83
2021/11/15 17:00:06;;;;;;;;;;;;;;;3.24;92.87;100180.41;4955967;28;20037;-84
2021/11/15 17:02:32;;;;;;;;;;;;;;;3.38;92.28;100169.84;4956025;28;19922;-85
2021/11/15 17:04:57;;;;;;;;;;;;;;;3.37;91.33;100168.09;4956110;28;20416;-84
2021/11/15 17:07:24;;;;;;;;;;;;;;;3.38;90.69;100168.94;4955220;28;19930;-85
2021/11/15 17:09:49;;;;;;;;;;;;;;;3.41;89.64;100159.31;4955638;28;19927;-86
2021/11/15 17:12:16;;;;;;;;;;;;;;;3.43;88.79;100170.66;4937898;29;19928;-85
2021/11/15 17:14:43;;;;;;;;;;;;;;;3.45;88.12;100166.28;4954488;28;20057;-84
2021/11/15 17:17:09;;;;;;;;;;;;;;;3.44;87.72;100167.13;4938474;29;20535;-84
2021/11/15 17:19:39;;;;;;;;;;;;;;;3.52;87.09;100166.22;4953829;28;19963;-84
2021/11/15 17:22:05;;;;;;;;;;;;;;;3.53;86.39;100166.22;4954728;28;19927;-85
2021/11/15 17:24:32;;;;;;;;;;;;;;;3.54;86.14;100165.34;4955883;28;19922;-84
2021/11/15 17:26:57;;;;;;;;;;;;;;;3.63;85.98;100167.00;4937576;29;19926;-84
2021/11/15 17:29:22;;;;;;;;;;;;;;;3.66;85.33;100174.84;4936330;29;19923;-84
2021/11/15 17:31:48;;;;;;;;;;;;;;;3.64;84.72;100171.38;4955065;28;19929;-84
2021/11/15 17:34:13;;;;;;;;;;;;;;;3.60;84.33;100173.13;4955305;28;19926;-84
2021/11/15 17:36:38;;;;;;;;;;;;;;;3.67;83.77;100171.34;4937909;28;20401;-84
2021/11/15 17:39:04;;;;;;;;;;;;;;;3.68;83.70;100170.44;4955007;28;19926;-84
2021/11/15 17:41:30;;;;;;;;;;;;;;;3.75;83.76;100169.53;4955194;28;19930;-85
2021/11/15 17:43:56;;;;;;;;;;;;;;;3.75;83.30;100158.16;4953954;28;19922;-84
2021/11/15 17:46:21;;;;;;;;;;;;;;;3.71;83.01;100167.81;4955269;28;20570;-83
2021/11/15 17:48:49;;;;;;;;;;;;;;;3.76;82.84;100158.13;4954426;28;20009;-84
2021/11/15 17:51:21;;;;;;;;;;;;;;;3.74;82.39;100164.31;4938000;29;19992;-84
2021/11/15 17:54:02;;;;;;;;;;;;;;;3.78;82.39;100168.63;4954663;28;19926;-85
2021/11/15 17:56:33;;;;;;;;;;;;;;;3.75;81.74;100166.91;4955034;28;19926;-84
2021/11/15 18:01:27;;;;;;;;;;;;;;;3.83;81.47;100161.59;4954715;28;19977;-84
2021/11/15 18:03:55;;;;;;;;;;;;;;;3.85;81.06;100158.97;4953875;28;19922;-84
2021/11/15 18:06:21;;;;;;;;;;;;;;;3.85;81.35;100153.72;4954278;28;19930;-84
2021/11/15 18:08:46;;;;;;;;;;;;;;;3.86;80.90;100160.69;4955190;28;20384;-84
2021/11/15 18:11:12;;;;;;;;;;;;;;;3.85;81.43;100151.09;4954759;28;19961;-84
2021/11/15 18:13:41;;;;;;;;;;;;;;;3.90;80.84;100157.16;4953019;28;19934;-84
2021/11/15 18:16:06;;;;;;;;;;;;;;;3.90;80.30;100157.16;4954502;28;19922;-81
2021/11/15 18:18:41;;;;;;;;;;;;;;;5.70;90.73;100159.16;4955629;29;20297;-83
2021/11/15 18:21:09;;;;;;;;;;;;;;;4.91;87.76;100161.25;4955021;29;19922;-83
2021/11/15 18:23:34;;;;;;;;;;;;;;;4.47;86.77;100157.41;4936789;28;19926;-83
2021/11/15 18:26:02;;;;;;;;;;;;;;;4.27;85.99;100154.16;4954162;28;19922;-83
2021/11/15 18:28:27;;;;;;;;;;;;;;;4.16;85.00;100168.28;4952583;28;19918;-83
2021/11/15 18:30:53;;;;;;;;;;;;;;;4.11;84.21;100167.41;4954727;28;20305;-83
2021/11/15 18:33:18;;;;;;;;;;;;;;;4.08;83.37;100177.94;4954173;28;19974;-83
2021/11/15 18:35:43;;;;;;;;;;;;;;;4.04;83.05;100171.00;4954477;28;19965;-83
2021/11/15 18:38:09;;;;;;;;;;;;;;;4.05;82.82;100172.72;4953953;28;20370;-83
2021/11/15 18:40:38;;;;;;;;;;;;;;;4.05;82.63;100171.88;4954207;28;20397;-84
2021/11/15 18:43:04;;;;;;;;;;;;;;;4.06;82.17;100177.09;4952520;29;20481;-83
2021/11/15 18:45:29;;;;;;;;;;;;;;;4.04;82.19;100171.00;4953950;29;19930;-83
2021/11/15 18:47:54;;;;;;;;;;;;;;;4.04;81.92;100165.75;4953881;29;19919;-83
2021/11/15 18:50:21;;;;;;;;;;;;;;;4.08;81.82;100162.19;4953808;28;19983;-83
2021/11/15 18:52:47;;;;;;;;;;;;;;;4.07;81.69;100176.22;4953328;28;20394;-83
2021/11/15 18:55:14;;;;;;;;;;;;;;;4.11;81.95;100174.44;4953935;28;19926;-83
2021/11/15 18:57:40;;;;;;;;;;;;;;;4.11;81.50;100162.19;4951393;28;20537;-83
2021/11/15 19:00:07;;;;;;;;;;;;;;;4.10;81.39;100165.69;4952254;28;20297;-83
2021/11/15 19:02:33;;;;;;;;;;;;;;;4.12;81.51;100166.53;4952791;28;19969;-83
2021/11/15 19:05:03;;;;;;;;;;;;;;;4.12;81.35;100170.94;4953362;28;20378;-83
2021/11/15 19:07:52;;;;;;;;;;;;;;;4.12;81.02;100163.06;4953272;28;20457;-84
2021/11/15 19:10:15;;;;;;;;;;;;;;;4.14;81.03;100175.25;4951162;28;19937;-84
2021/11/15 19:12:42;;;;;;;;;;;;;;;4.17;81.06;100175.22;4935067;28;19918;-84
2021/11/15 19:15:08;;;;;;;;;;;;;;;4.17;81.14;100175.22;4952877;28;19929;-83
2021/11/15 19:17:36;;;;;;;;;;;;;;;4.22;81.23;100179.56;4952332;28;19923;-83
2021/11/15 19:20:04;;;;;;;;;;;;;;;4.21;80.90;100172.56;4953564;28;19930;-83
2021/11/15 19:22:29;;;;;;;;;;;;;;;4.18;80.98;100166.50;4935567;29;19919;-83
2021/11/15 19:24:55;;;;;;;;;;;;;;;4.24;81.16;100172.53;4936409;29;20440;-84
2021/11/15 19:27:23;;;;;;;;;;;;;;;4.26;81.10;100176.91;4935347;29;19923;-84
2021/11/15 19:29:49;;;;;;;;;;;;;;;4.29;81.35;100181.22;4935869;28;20649;-83
2021/11/15 19:32:14;;;;;;;;;;;;;;;4.29;81.25;100182.13;4935849;28;19922;-83
2021/11/15 19:34:39;;;;;;;;;;;;;;;4.30;81.23;100186.47;4935989;28;19918;-83
2021/11/15 19:37:05;;;;;;;;;;;;;;;4.32;81.10;100186.44;4936059;29;19926;-84
2021/11/15 19:39:33;;;;;;;;;;;;;;;4.32;81.08;100178.56;4935980;29;19973;-83
2021/11/15 19:41:58;;;;;;;;;;;;;;;4.33;80.99;100177.69;4936146;28;20013;-83
2021/11/15 19:44:24;;;;;;;;;;;;;;;4.36;80.97;100188.16;4935193;29;20044;-83
2021/11/15 19:46:49;;;;;;;;;;;;;;;4.36;80.70;100193.41;4953269;28;19977;-83
2021/11/15 19:49:18;;;;;;;;;;;;;;;4.36;80.68;100193.41;4952877;28;19929;-83
2021/11/15 19:51:47;;;;;;;;;;;;;;;4.42;80.85;100198.59;4935379;28;19923;-83
2021/11/15 19:54:17;;;;;;;;;;;;;;;4.44;80.88;100190.69;4935991;29;20355;-83
2021/11/15 19:56:43;;;;;;;;;;;;;;;4.44;80.81;100195.94;4953139;29;19923;-84
2021/11/15 19:59:09;;;;;;;;;;;;;;;4.46;80.91;100195.03;4931585;29;19938;-84
2021/11/15 20:01:34;;;;;;;;;;;;;;;4.47;80.82;100196.78;4932632;29;19933;-83
2021/11/15 20:04:00;;;;;;;;;;;;;;;4.49;80.59;100199.38;4933374;29;19978;-83
2021/11/15 20:06:28;;;;;;;;;;;;;;;4.51;80.80;100203.72;4934159;29;19927;-83
2021/11/15 20:08:53;;;;;;;;;;;;;;;4.50;80.77;100202.00;4934581;29;20427;-83
2021/11/15 20:11:19;;;;;;;;;;;;;;;4.56;80.74;100206.28;4934285;28;19982;-83
2021/11/15 20:13:45;;;;;;;;;;;;;;;4.60;81.02;100213.25;4931950;29;20402;-83
2021/11/15 20:16:12;;;;;;;;;;;;;;;4.59;80.97;100215.91;4933593;29;20267;-83
2021/11/15 20:18:38;;;;;;;;;;;;;;;4.61;80.93;100219.34;4932972;29;20357;-83
2021/11/15 20:21:03;;;;;;;;;;;;;;;4.62;81.02;100218.47;4933449;29;19951;-83
2021/11/15 20:23:29;;;;;;;;;;;;;;;4.67;81.19;100219.28;4934063;29;20113;-83
2021/11/15 20:25:55;;;;;;;;;;;;;;;4.65;81.06;100226.31;4934652;29;19923;-83
2021/11/15 20:28:21;;;;;;;;;;;;;;;4.68;81.15;100227.16;4936554;29;19931;-83
2021/11/15 20:30:47;;;;;;;;;;;;;;;4.70;80.74;100227.13;4937019;29;19930;-84